createdAt,value
2023-02-26T00:00:10.534Z,2.70
2023-02-26T00:03:13.565Z,3.40
2023-02-26T00:06:01.608Z,2.70
2023-02-26T00:08:44.663Z,2.30
2023-02-26T00:11:28.137Z,1.90
2023-02-26T00:14:14.838Z,1.70
2023-02-26T00:17:31.983Z,2.00
2023-02-26T00:20:17.010Z,2.20
2023-02-26T00:23:00.433Z,1.90
2023-02-26T00:25:43.424Z,1.90
2023-02-26T00:28:26.833Z,1.60
2023-02-26T00:31:10.717Z,1.90
2023-02-26T00:33:55.844Z,2.60
2023-02-26T00:37:00.360Z,2.10
2023-02-26T00:39:46.262Z,1.80
2023-02-26T00:42:29.509Z,1.40
2023-02-26T00:45:14.833Z,1.90
2023-02-26T00:48:13.007Z,1.90
2023-02-26T00:51:24.217Z,2.00
2023-02-26T00:54:13.352Z,1.40
2023-02-26T00:56:58.310Z,1.70
2023-02-26T00:59:41.219Z,1.50
2023-02-26T01:02:24.459Z,1.80
2023-02-26T01:05:08.791Z,1.50
2023-02-26T01:08:19.821Z,1.20
2023-02-26T01:11:03.349Z,1.90
2023-02-26T01:13:46.855Z,1.50
2023-02-26T01:16:35.822Z,1.10
2023-02-26T01:19:36.747Z,2.10
2023-02-26T01:22:25.603Z,1.60
2023-02-26T01:25:13.480Z,2.10
2023-02-26T01:27:57.784Z,2.60
2023-02-26T01:30:41.456Z,1.40
2023-02-26T01:33:35.279Z,1.60
2023-02-26T01:36:23.383Z,1.90
2023-02-26T01:39:36.546Z,1.70
2023-02-26T01:42:27.920Z,1.50
2023-02-26T01:45:20.181Z,1.70
2023-02-26T01:48:10.939Z,1.40
2023-02-26T01:50:54.057Z,1.50
2023-02-26T01:53:37.040Z,1.30
2023-02-26T01:56:21.013Z,1.10
2023-02-26T01:59:06.284Z,2.00
2023-02-26T02:02:39.151Z,1.50
2023-02-26T02:06:45.059Z,1.10
2023-02-26T02:10:24.026Z,1.20
2023-02-26T02:14:30.835Z,1.20
2023-02-26T02:18:39.327Z,1.50
2023-02-26T02:22:46.199Z,1.70
2023-02-26T02:26:48.093Z,1.20
2023-02-26T02:31:07.307Z,1.00
2023-02-26T02:35:14.506Z,1.30
2023-02-26T02:39:18.620Z,1.50
2023-02-26T02:43:36.581Z,1.10
2023-02-26T02:47:40.523Z,1.40
2023-02-26T02:51:33.071Z,1.40
2023-02-26T02:55:33.934Z,1.30
2023-02-26T02:59:26.859Z,1.30
2023-02-26T03:03:41.286Z,2.00
2023-02-26T03:07:45.280Z,1.30
2023-02-26T03:11:49.294Z,1.60
2023-02-26T03:15:53.400Z,1.30
2023-02-26T03:20:00.447Z,1.60
2023-02-26T03:24:12.914Z,1.30
2023-02-26T03:28:09.165Z,2.20
2023-02-26T03:32:12.389Z,1.70
2023-02-26T03:36:16.367Z,1.60
2023-02-26T03:40:06.335Z,1.60
2023-02-26T03:44:37.553Z,1.50
2023-02-26T03:48:41.421Z,2.10
2023-02-26T03:52:43.867Z,2.00
2023-02-26T03:56:50.631Z,1.60
2023-02-26T04:01:13.186Z,1.20
2023-02-26T04:05:08.668Z,1.40
2023-02-26T04:09:13.734Z,1.70
2023-02-26T04:13:12.131Z,1.70
2023-02-26T04:16:48.820Z,1.70
2023-02-26T04:20:45.414Z,1.50
2023-02-26T04:24:49.413Z,1.50
2023-02-26T04:28:44.676Z,1.20
2023-02-26T04:32:30.980Z,1.80
2023-02-26T04:35:56.266Z,1.70
2023-02-26T04:39:53.002Z,2.10
2023-02-26T04:43:47.203Z,2.40
2023-02-26T04:47:29.887Z,2.00
2023-02-26T04:51:33.958Z,2.00
2023-02-26T04:55:30.777Z,3.80
2023-02-26T04:59:34.755Z,1.50
2023-02-26T05:03:38.800Z,2.10
2023-02-26T05:07:42.842Z,1.90
2023-02-26T05:11:35.582Z,2.50
2023-02-26T05:15:33.931Z,2.10
2023-02-26T05:19:37.972Z,2.10
2023-02-26T05:23:30.950Z,1.90
2023-02-26T05:27:13.822Z,2.10
2023-02-26T05:30:40.645Z,2.40
2023-02-26T05:33:53.658Z,1.70
2023-02-26T05:37:57.654Z,2.00
2023-02-26T05:41:51.360Z,1.80
2023-02-26T05:45:55.622Z,1.80
2023-02-26T05:50:00.296Z,1.60
2023-02-26T05:54:04.265Z,1.70
2023-02-26T05:58:00.760Z,1.80
2023-02-26T06:02:05.526Z,1.80
2023-02-26T06:05:41.591Z,1.80
2023-02-26T06:13:09.982Z,2.30
2023-02-26T06:17:13.972Z,1.90
2023-02-26T06:21:19.154Z,1.90
2023-02-26T06:24:56.486Z,2.20
2023-02-26T06:28:42.592Z,2.00
2023-02-26T06:32:36.481Z,1.90
2023-02-26T06:36:40.603Z,1.40
2023-02-26T06:40:07.177Z,1.10
2023-02-26T06:44:11.100Z,1.70
2023-02-26T06:48:14.998Z,1.80
2023-02-26T06:52:19.977Z,2.90
2023-02-26T06:56:24.381Z,2.20
2023-02-26T07:04:06.208Z,1.60
2023-02-26T07:07:59.061Z,3.10
2023-02-26T07:12:02.941Z,1.50
2023-02-26T07:16:07.124Z,2.00
2023-02-26T07:20:11.200Z,2.90
2023-02-26T07:23:58.307Z,1.30
2023-02-26T07:27:53.665Z,2.40
2023-02-26T07:31:57.767Z,2.80
2023-02-26T07:36:01.835Z,1.50
2023-02-26T07:40:05.889Z,1.90
2023-02-26T07:43:43.169Z,2.90
2023-02-26T07:47:32.807Z,1.70
2023-02-26T07:51:32.653Z,2.00
2023-02-26T07:55:16.597Z,2.20
2023-02-26T07:59:20.700Z,2.60
2023-02-26T08:03:03.450Z,2.30
2023-02-26T08:07:07.549Z,2.50
2023-02-26T08:11:02.133Z,2.10
2023-02-26T08:14:56.052Z,2.20
2023-02-26T08:19:00.136Z,2.00
2023-02-26T08:22:49.620Z,2.20
2023-02-26T08:26:42.478Z,1.80
2023-02-26T08:30:39.083Z,2.50
2023-02-26T08:34:43.033Z,3.50
2023-02-26T08:38:17.245Z,2.20
2023-02-26T08:42:21.193Z,3.00
2023-02-26T08:46:18.196Z,3.70
2023-02-26T08:49:47.847Z,3.10
2023-02-26T08:53:32.807Z,3.00
2023-02-26T08:57:35.426Z,2.20
2023-02-26T09:01:38.167Z,2.20
2023-02-26T09:05:35.041Z,2.30
2023-02-26T09:09:29.083Z,4.10
2023-02-26T09:13:09.279Z,6.00
2023-02-26T09:17:13.182Z,3.40
2023-02-26T09:20:58.369Z,6.00
2023-02-26T09:24:51.196Z,2.90
2023-02-26T09:28:47.718Z,3.10
2023-02-26T09:32:22.607Z,2.90
2023-02-26T09:36:25.847Z,2.80
2023-02-26T09:43:52.856Z,3.10
2023-02-26T09:47:40.970Z,4.40
2023-02-26T09:51:50.077Z,2.10
2023-02-26T09:55:36.297Z,2.00
2023-02-26T09:59:29.325Z,3.50
2023-02-26T10:03:38.756Z,2.80
2023-02-26T10:07:51.894Z,3.20
2023-02-26T10:12:01.706Z,4.20
2023-02-26T10:16:12.706Z,2.80
2023-02-26T10:20:19.859Z,3.10
2023-02-26T10:24:02.906Z,2.30
2023-02-26T10:27:43.322Z,2.40
2023-02-26T10:31:50.055Z,2.20
2023-02-26T10:35:59.751Z,2.10
2023-02-26T10:40:07.012Z,2.10
2023-02-26T10:44:23.331Z,2.80
2023-02-26T10:48:20.153Z,1.80
2023-02-26T10:52:04.096Z,1.40
2023-02-26T10:55:53.968Z,1.30
2023-02-26T10:59:47.837Z,1.60
2023-02-26T11:03:45.620Z,2.60
2023-02-26T11:07:54.774Z,2.80
2023-02-26T11:22:36.138Z,2.20
2023-02-26T11:27:23.753Z,1.80
2023-02-26T11:31:00.304Z,2.00
2023-02-26T11:34:32.478Z,2.10
2023-02-26T11:38:29.930Z,1.80
2023-02-26T11:41:50.705Z,2.00
2023-02-26T11:45:39.257Z,2.10
2023-02-26T11:49:09.564Z,1.60
2023-02-26T11:53:22.805Z,1.50
2023-02-26T11:59:10.206Z,1.80
2023-02-26T12:02:14.711Z,2.10
2023-02-26T12:06:12.550Z,1.50
2023-02-26T12:09:15.660Z,1.70
2023-02-26T12:12:27.895Z,2.20
2023-02-26T12:15:26.977Z,2.90
2023-02-26T12:18:58.398Z,3.20
2023-02-26T12:22:13.068Z,2.20
2023-02-26T12:25:50.524Z,2.00
2023-02-26T12:29:05.932Z,1.80
2023-02-26T12:32:15.243Z,1.70
2023-02-26T12:35:35.608Z,1.30
2023-02-26T12:38:52.311Z,1.80
2023-02-26T12:42:21.235Z,3.20
2023-02-26T12:45:37.861Z,2.50
2023-02-26T12:48:46.797Z,3.00
2023-02-26T12:52:22.788Z,3.60
2023-02-26T12:55:26.352Z,4.70
2023-02-26T12:58:31.963Z,3.20
2023-02-26T13:01:36.251Z,3.20
2023-02-26T13:05:15.182Z,4.20
2023-02-26T13:08:30.046Z,3.90
2023-02-26T13:11:33.788Z,2.30
2023-02-26T13:15:00.885Z,2.70
2023-02-26T13:17:58.936Z,2.00
2023-02-26T13:21:11.967Z,1.70
2023-02-26T13:24:22.512Z,2.10
2023-02-26T13:27:18.443Z,1.90
2023-02-26T13:30:41.468Z,2.40
2023-02-26T13:33:30.371Z,2.10
2023-02-26T13:36:16.859Z,2.00
2023-02-26T13:39:37.413Z,1.70
2023-02-26T13:42:57.560Z,1.70
2023-02-26T13:46:04.128Z,2.40
2023-02-26T13:49:31.503Z,1.90
2023-02-26T13:52:56.137Z,2.10
2023-02-26T13:55:52.020Z,1.20
2023-02-26T13:59:04.687Z,2.00
2023-02-26T14:02:14.740Z,1.50
2023-02-26T14:05:02.894Z,2.70
2023-02-26T14:08:21.512Z,1.80
2023-02-26T14:12:17.587Z,2.50
2023-02-26T14:15:30.047Z,2.20
2023-02-26T14:18:57.040Z,1.60
2023-02-26T14:22:09.392Z,2.30
2023-02-26T14:29:17.654Z,2.30
2023-02-26T14:32:15.243Z,2.50
2023-02-26T14:35:22.562Z,1.60
2023-02-26T14:39:06.258Z,1.90
2023-02-26T14:42:19.478Z,3.40
2023-02-26T14:45:38.847Z,2.50
2023-02-26T14:49:13.102Z,1.80
2023-02-26T14:52:28.334Z,3.00
2023-02-26T14:55:20.492Z,1.90
2023-02-26T14:59:03.233Z,2.60
2023-02-26T15:02:54.685Z,2.20
2023-02-26T15:06:25.337Z,1.90
2023-02-26T15:10:42.784Z,2.50
2023-02-26T15:14:32.647Z,2.10
2023-02-26T15:17:52.007Z,1.50
2023-02-26T15:21:32.371Z,1.80
2023-02-26T15:24:48.299Z,1.60
2023-02-26T15:28:15.083Z,1.50
2023-02-26T15:31:37.239Z,1.20
2023-02-26T15:34:52.771Z,2.10
2023-02-26T15:38:01.367Z,2.40
2023-02-26T15:41:35.146Z,2.60
2023-02-26T15:48:55.191Z,2.60
2023-02-26T15:52:40.411Z,2.10
2023-02-26T15:56:10.639Z,3.40
2023-02-26T15:59:25.551Z,3.50
2023-02-26T16:03:29.625Z,4.20
2023-02-26T16:07:16.259Z,5.40
2023-02-26T16:10:53.540Z,7.30
2023-02-26T16:14:10.936Z,5.10
2023-02-26T16:18:14.965Z,3.80
2023-02-26T16:21:47.510Z,3.90
2023-02-26T16:24:56.377Z,4.10
2023-02-26T16:28:08.330Z,3.50
2023-02-26T16:31:38.672Z,3.20
2023-02-26T16:35:14.248Z,2.60
2023-02-26T16:38:40.542Z,2.80
2023-02-26T16:42:50.682Z,3.60
2023-02-26T16:46:25.959Z,4.80
2023-02-26T16:50:00.012Z,6.00
2023-02-26T16:53:40.380Z,5.50
2023-02-26T16:57:25.205Z,4.60
2023-02-26T17:01:20.170Z,5.30
2023-02-26T17:04:24.845Z,4.50
2023-02-26T17:08:14.450Z,4.80
2023-02-26T17:11:07.760Z,4.60
2023-02-26T17:17:51.428Z,4.80
2023-02-26T17:20:44.998Z,4.20
2023-02-26T17:24:19.793Z,4.50
2023-02-26T17:31:47.300Z,3.10
2023-02-26T17:38:13.292Z,3.30
2023-02-26T17:41:27.147Z,3.60
2023-02-26T17:45:03.261Z,3.70
2023-02-26T17:49:07.125Z,5.20
2023-02-26T17:52:27.406Z,5.40
2023-02-26T17:55:58.963Z,5.70
2023-02-26T17:59:51.485Z,5.80
2023-02-26T18:03:06.398Z,5.10
2023-02-26T18:06:35.093Z,7.30
2023-02-26T18:10:11.439Z,8.30
2023-02-26T18:13:55.524Z,5.70
2023-02-26T18:17:07.262Z,5.00
2023-02-26T18:20:53.808Z,4.10
2023-02-26T18:24:37.579Z,6.60
2023-02-26T18:27:44.714Z,5.90
2023-02-26T18:31:02.338Z,5.70
2023-02-26T18:33:54.241Z,5.10
2023-02-26T18:37:11.631Z,5.50
2023-02-26T18:40:22.098Z,4.40
2023-02-26T18:43:10.494Z,4.70
2023-02-26T18:46:38.517Z,4.00
2023-02-26T18:49:44.890Z,4.50
2023-02-26T18:52:50.531Z,5.90
2023-02-26T18:55:44.477Z,6.80
2023-02-26T18:59:08.179Z,5.30
2023-02-26T19:02:15.530Z,5.70
2023-02-26T19:05:58.689Z,6.10
2023-02-26T19:09:02.993Z,6.20
2023-02-26T19:12:20.325Z,5.90
2023-02-26T19:15:15.302Z,5.80
2023-02-26T19:18:47.545Z,6.30
2023-02-26T19:22:21.174Z,6.50
2023-02-26T19:28:16.705Z,4.80
2023-02-26T19:31:38.283Z,4.40
2023-02-26T19:35:21.382Z,4.10
2023-02-26T19:38:42.448Z,4.80
2023-02-26T19:42:09.491Z,6.40
2023-02-26T19:47:52.401Z,12.30
2023-02-26T19:50:38.919Z,13.30
2023-02-26T19:54:00.503Z,9.90
2023-02-26T19:57:24.417Z,5.60
2023-02-26T20:00:37.454Z,4.70
2023-02-26T20:03:27.226Z,8.00
2023-02-26T20:06:36.363Z,7.40
2023-02-26T20:10:31.648Z,10.80
2023-02-26T20:13:35.500Z,5.90
2023-02-26T20:16:41.746Z,6.30
2023-02-26T20:19:50.341Z,4.70
2023-02-26T20:23:44.278Z,4.60
2023-02-26T20:26:49.068Z,7.10
2023-02-26T20:29:43.464Z,7.20
2023-02-26T20:32:41.484Z,6.70
2023-02-26T20:36:07.861Z,5.00
2023-02-26T20:39:34.607Z,6.60
2023-02-26T20:42:20.992Z,9.40
2023-02-26T20:45:10.486Z,6.20
2023-02-26T20:48:54.203Z,5.30
2023-02-26T20:51:57.447Z,5.30
2023-02-26T20:55:21.465Z,4.00
2023-02-26T20:58:22.673Z,2.60
2023-02-26T21:01:36.502Z,4.10
2023-02-26T21:04:40.327Z,4.10
2023-02-26T21:07:58.852Z,5.20
2023-02-26T21:11:28.153Z,3.10
2023-02-26T21:14:40.999Z,3.40
2023-02-26T21:17:27.399Z,3.60
2023-02-26T21:20:18.292Z,3.60
2023-02-26T21:23:10.362Z,3.40
2023-02-26T21:25:56.728Z,4.50
2023-02-26T21:29:00.994Z,4.20
2023-02-26T21:32:16.270Z,3.40
2023-02-26T21:35:32.765Z,3.80
2023-02-26T21:38:36.158Z,3.40
2023-02-26T21:41:39.690Z,3.80
2023-02-26T21:44:31.703Z,4.30
2023-02-26T21:47:55.301Z,4.30
2023-02-26T21:51:01.759Z,4.80
2023-02-26T21:54:25.448Z,7.50
2023-02-26T21:57:17.864Z,4.60
2023-02-26T22:00:39.997Z,4.90
2023-02-26T22:03:25.458Z,4.30
2023-02-26T22:06:47.670Z,4.90
2023-02-26T22:10:24.090Z,4.70
2023-02-26T22:13:57.897Z,4.90
2023-02-26T22:21:18.395Z,4.00
2023-02-26T22:25:03.281Z,4.40
2023-02-26T22:28:57.284Z,3.90
2023-02-26T22:32:46.911Z,4.30
2023-02-26T22:36:30.760Z,3.90
2023-02-26T22:40:14.732Z,3.30
2023-02-26T22:44:18.802Z,3.70
2023-02-26T22:47:56.067Z,3.30
2023-02-26T22:51:14.879Z,3.90
2023-02-26T22:55:08.825Z,3.70
2023-02-26T23:02:06.292Z,3.90
2023-02-26T23:05:32.865Z,4.00
2023-02-26T23:09:01.587Z,4.60
2023-02-26T23:12:59.536Z,3.70
2023-02-26T23:17:03.753Z,3.30
2023-02-26T23:20:49.826Z,4.00
2023-02-26T23:24:53.868Z,3.60
2023-02-26T23:28:46.970Z,3.60
2023-02-26T23:32:43.831Z,4.00
2023-02-26T23:36:40.679Z,4.00
2023-02-26T23:40:43.549Z,3.90
2023-02-26T23:44:18.454Z,5.20
2023-02-26T23:48:10.835Z,3.70
2023-02-26T23:52:13.615Z,3.30
2023-02-26T23:55:41.963Z,3.60
2023-02-26T23:59:44.546Z,4.30
